San Francisco, Colorado
Current Conditions -  °F | °C
As of 12:32 PM on Saturday 25 Oct 2014 (Local Time) from KVTP Reporting Station
Thunderstorm Thunderstorm  
Wind Chill: 63°   Ceiling: Unl
Heat Index: 63°   Visibility: 10mi
Dew Point: 19°   Wind: 0mph
Humidity: 19%   Direction: NA
Pressure: 30.52"   Gusts: NA
Location:  37.1568°N, 105.289°W
Report Text: KVTP 251832Z AUTO 00000KT 10SM TS CLR 17/M07 A3052 RMK AO2
Loading
Personal Weather Stations






























Interactive Weather Map
Tropical Storm Tracking
New forecast layout! Learn more

10-Day Weather Forecast

Advertisements
Track Severe Weather on mobile